Time;durP1;ratioP1;P1;durP2;ratioP2;P2;SDS_P1;SDS_P2;PMS_P1;PMS_P2;Temp;Humidity;BMP_temperature;BMP_pressure;BME280_temperature;BME280_humidity;BME280_pressure;Samples;Min_cycle;Max_cycle;Signal;HPM_P1;HPM_P2
2023/05/29 00:01:35;;;;;;;9.6;4.9;;;;;;;-143.2;100;76730;;;;
2023/05/29 00:12:35;;;;;;;6.9;3.5;;;;;;;-143.2;100;76760;;;;
2023/05/29 00:23:35;;;;;;;6.9;3.5;;;;;;;-143.2;100;76770;;;;
2023/05/29 00:34:35;;;;;;;6.9;3.5;;;;;;;-143.2;100;76780;;;;
2023/05/29 00:44:36;;;;;;;4.8;2.6;;;;;;;-143.2;100;76780;;;;
2023/05/29 00:54:36;;;;;;;4.8;2.6;;;;;;;-143.2;100;76800;;;;
2023/05/29 01:04:35;;;;;;;4.8;2.6;;;;;;;-143.2;100;76790;;;;
2023/05/29 01:14:35;;;;;;;6.9;3.2;;;;;;;-143.2;100;76810;;;;
2023/05/29 01:25:35;;;;;;;6.9;3.2;;;;;;;-143.2;100;76830;;;;
2023/05/29 01:35:35;;;;;;;6.2;2.8;;;;;;;-143.2;100;76840;;;;
2023/05/29 01:46:35;;;;;;;6.2;2.8;;;;;;;-143.2;100;76850;;;;
2023/05/29 01:57:35;;;;;;;6.2;2.8;;;;;;;-143.2;100;76860;;;;
2023/05/29 02:08:35;;;;;;;5.3;2.7;;;;;;;-143.2;100;76880;;;;
2023/05/29 02:18:35;;;;;;;5.3;2.7;;;;;;;-143.2;100;76880;;;;
2023/05/29 02:29:35;;;;;;;5.3;2.7;;;;;;;-143.2;100;76900;;;;
2023/05/29 02:39:35;;;;;;;4.7;2.2;;;;;;;-143.2;100;76910;;;;
2023/05/29 02:49:35;;;;;;;4.7;2.2;;;;;;;-143.2;100;76910;;;;
2023/05/29 02:59:36;;;;;;;4.7;2.2;;;;;;;-143.2;100;76920;;;;
2023/05/29 03:09:35;;;;;;;7.2;3;;;;;;;-143.2;100;76910;;;;
2023/05/29 03:19:36;;;;;;;7.2;3;;;;;;;-143.2;100;76890;;;;
2023/05/29 03:30:35;;;;;;;7.2;3;;;;;;;-143.2;100;76870;;;;
2023/05/29 03:40:35;;;;;;;9.9;5.2;;;;;;;-143.2;100;76850;;;;
2023/05/29 03:50:35;;;;;;;9.9;5.2;;;;;;;-143.2;100;76820;;;;
2023/05/29 04:01:35;;;;;;;9.9;5.2;;;;;;;-143.2;100;76790;;;;
2023/05/29 04:12:35;;;;;;;7.2;3.4;;;;;;;-143.2;100;76730;;;;
2023/05/29 04:23:35;;;;;;;7.2;3.4;;;;;;;-143.2;100;76680;;;;
2023/05/29 04:33:36;;;;;;;7.2;3.4;;;;;;;-143.2;100;76600;;;;
2023/05/29 04:43:36;;;;;;;6.6;3.8;;;;;;;-143.2;100;76540;;;;
2023/05/29 04:53:36;;;;;;;6.6;3.8;;;;;;;-143.2;100;76470;;;;
2023/05/29 05:04:36;;;;;;;7.4;5.4;;;;;;;-143.2;100;76390;;;;
2023/05/29 05:14:35;;;;;;;7.4;5.4;;;;;;;-143.2;100;76320;;;;
2023/05/29 05:25:35;;;;;;;7.4;5.4;;;;;;;-143.2;100;76260;;;;
2023/05/29 05:36:36;;;;;;;10.8;6.4;;;;;;;-143.2;100;76210;;;;
2023/05/29 05:46:35;;;;;;;10.8;6.4;;;;;;;-143.2;100;76150;;;;
2023/05/29 05:56:35;;;;;;;10.8;6.4;;;;;;;-143.2;100;76110;;;;
2023/05/29 06:07:36;;;;;;;13.8;7.9;;;;;;;-143.2;99.2;76080;;;;
2023/05/29 06:18:35;;;;;;;13.8;7.9;;;;;;;-143.2;95.9;76040;;;;
2023/05/29 06:29:35;;;;;;;13.8;7.9;;;;;;;-143.2;94.2;75970;;;;
2023/05/29 06:39:35;;;;;;;9.9;6.1;;;;;;;-143.2;92.6;75950;;;;
2023/05/29 06:49:35;;;;;;;9.9;6.1;;;;;;;-143.2;90.2;75940;;;;
2023/05/29 06:59:36;;;;;;;9.9;6.1;;;;;;;-143.2;88;75860;;;;
2023/05/29 07:09:36;;;;;;;13;6.1;;;;;;;-143.2;88.2;75850;;;;
2023/05/29 07:19:36;;;;;;;13;6.1;;;;;;;-143.2;86.1;75810;;;;
2023/05/29 07:30:35;;;;;;;13;6.1;;;;;;;-143.2;83.5;75750;;;;
2023/05/29 07:41:35;;;;;;;9.1;5.7;;;;;;;-143.2;83.2;75700;;;;
2023/05/29 07:51:36;;;;;;;9.1;5.7;;;;;;;-143.2;83.5;75660;;;;
2023/05/29 08:02:36;;;;;;;9.1;5.7;;;;;;;-143.2;84.1;75680;;;;
2023/05/29 08:12:36;;;;;;;12.3;6;;;;;;;-143.2;80.5;75610;;;;
2023/05/29 08:22:36;;;;;;;12.3;6;;;;;;;-143.2;78.5;75580;;;;
2023/05/29 08:33:36;;;;;;;12.3;6;;;;;;;-143.2;77.1;75530;;;;
2023/05/29 08:43:36;;;;;;;15.6;6.1;;;;;;;-143.2;77.1;75490;;;;
2023/05/29 08:54:36;;;;;;;15.6;6.1;;;;;;;-143.2;74.2;75450;;;;
2023/05/29 09:05:39;;;;;;;12.5;5.8;;;;;;;-143.2;75.1;75390;;;;
2023/05/29 09:16:36;;;;;;;12.5;5.8;;;;;;;-143.2;71.8;75360;;;;
2023/05/29 09:26:36;;;;;;;12.5;5.8;;;;;;;-143.2;69.6;75300;;;;
2023/05/29 09:36:36;;;;;;;12.9;5.1;;;;;;;-143.2;70.5;75310;;;;
2023/05/29 09:47:36;;;;;;;12.9;5.1;;;;;;;-143.2;66.9;75280;;;;
2023/05/29 09:57:36;;;;;;;12.9;5.1;;;;;;;-143.2;67.6;75280;;;;
2023/05/29 10:08:36;;;;;;;8.4;3.8;;;;;;;-143.2;65.7;75240;;;;
2023/05/29 10:18:36;;;;;;;8.4;3.8;;;;;;;-143.2;65.4;75240;;;;
2023/05/29 10:29:36;;;;;;;8.4;3.8;;;;;;;-143.2;67.3;75150;;;;
2023/05/29 10:40:36;;;;;;;10;3.9;;;;;;;-143.2;63.2;75210;;;;
2023/05/29 10:51:36;;;;;;;10;3.9;;;;;;;-143.2;63.2;75180;;;;
2023/05/29 11:02:36;;;;;;;10;3.9;;;;;;;-143.2;61.9;75180;;;;
2023/05/29 11:12:36;;;;;;;10.1;4.1;;;;;;;-143.2;56.9;75100;;;;
2023/05/29 11:23:36;;;;;;;10.1;4.1;;;;;;;-143.2;55.4;75110;;;;
2023/05/29 11:33:36;;;;;;;10.1;4.1;;;;;;;-143.2;55.6;75070;;;;
2023/05/29 11:44:36;;;;;;;8;3.3;;;;;;;-143.2;56.8;75090;;;;
2023/05/29 11:55:36;;;;;;;8;3.3;;;;;;;-143.2;54.9;75060;;;;
2023/05/29 12:05:36;;;;;;;9.5;4.1;;;;;;;-143.2;56.6;75000;;;;
2023/05/29 12:16:36;;;;;;;9.5;4.1;;;;;;;-143.2;52.9;74970;;;;
2023/05/29 12:27:41;;;;;;;9.5;4.1;;;;;;;-143.2;54.2;74950;;;;
2023/05/29 12:38:36;;;;;;;8.4;4.3;;;;;;;-143.2;53.9;74950;;;;
2023/05/29 12:48:36;;;;;;;8.4;4.3;;;;;;;-143.2;52.5;74950;;;;
2023/05/29 12:58:36;;;;;;;8.4;4.3;;;;;;;-143.2;50.4;74870;;;;
2023/05/29 13:09:36;;;;;;;9.8;4.2;;;;;;;-143.2;49.9;74880;;;;
2023/05/29 13:20:36;;;;;;;9.8;4.2;;;;;;;-143.2;50.3;74850;;;;
2023/05/29 13:31:36;;;;;;;9.8;4.2;;;;;;;-143.2;50.5;74870;;;;
2023/05/29 13:42:36;;;;;;;8.9;4;;;;;;;-143.2;47.2;74850;;;;
2023/05/29 13:53:36;;;;;;;8.9;4;;;;;;;-143.2;48;74800;;;;
2023/05/29 14:04:36;;;;;;;7.7;3.8;;;;;;;-143.2;47.9;74800;;;;
2023/05/29 14:14:37;;;;;;;7.7;3.8;;;;;;;-143.2;48.2;74830;;;;
2023/05/29 14:24:36;;;;;;;7.7;3.8;;;;;;;-143.2;45;74790;;;;
2023/05/29 14:34:36;;;;;;;8.3;3.9;;;;;;;-143.2;49.6;74770;;;;
2023/05/29 14:45:36;;;;;;;8.3;3.9;;;;;;;-143.2;47.2;74780;;;;
2023/05/29 14:56:36;;;;;;;8.3;3.9;;;;;;;-143.2;47.1;74720;;;;
2023/05/29 15:07:36;;;;;;;7.5;3.7;;;;;;;-143.2;41.5;74350;;;;
2023/05/29 15:18:36;;;;;;;7.5;3.7;;;;;;;-143.2;40.2;74220;;;;
2023/05/29 15:29:36;;;;;;;7.5;3.7;;;;;;;-143.2;38.5;74270;;;;
2023/05/29 15:40:36;;;;;;;8.5;5.9;;;;;;;-143.2;37.2;74020;;;;
2023/05/29 15:50:36;;;;;;;8.5;5.9;;;;;;;-143.2;37;74110;;;;
2023/05/29 16:01:36;;;;;;;8.5;5.9;;;;;;;-143.2;35.9;74000;;;;
2023/05/29 16:11:36;;;;;;;7.2;2.8;;;;;;;-143.2;35.4;74000;;;;
2023/05/29 16:22:36;;;;;;;7.2;2.8;;;;;;;-143.2;35.7;74060;;;;
2023/05/29 16:32:36;;;;;;;7.2;2.8;;;;;;;-143.2;36.2;74140;;;;
2023/05/29 16:42:36;;;;;;;6.7;3.3;;;;;;;-143.2;36;74110;;;;
2023/05/29 16:53:37;;;;;;;6.7;3.3;;;;;;;-143.2;35;74090;;;;
2023/05/29 17:03:37;;;;;;;6.7;3.3;;;;;;;-143.2;36.9;74250;;;;
2023/05/29 17:14:36;;;;;;;5.9;3.2;;;;;;;-143.2;39.1;74480;;;;
2023/05/29 17:25:37;;;;;;;5.9;3.2;;;;;;;-143.2;43.2;74710;;;;
2023/05/29 17:36:36;;;;;;;8.9;3.8;;;;;;;-143.2;45.2;74770;;;;
2023/05/29 17:46:36;;;;;;;8.9;3.8;;;;;;;-143.2;43.3;74620;;;;
2023/05/29 17:57:36;;;;;;;11.6;5.2;;;;;;;24.9;35.6;98790;;;;
2023/05/29 18:07:38;;;;;;;11.6;5.2;;;;;;;22.7;38;98800;;;;
2023/05/29 18:17:36;;;;;;;11.6;5.2;;;;;;;21.2;42;98800;;;;
2023/05/29 18:27:36;;;;;;;13.5;4.9;;;;;;;19.9;44.7;98820;;;;
2023/05/29 18:38:36;;;;;;;13.5;4.9;;;;;;;18.8;47.6;98830;;;;
2023/05/29 18:49:36;;;;;;;13.5;4.9;;;;;;;17.6;50.5;98840;;;;
2023/05/29 18:59:36;;;;;;;24.8;16.1;;;;;;;16.9;51.2;98850;;;;
2023/05/29 19:09:37;;;;;;;24.8;16.1;;;;;;;16.3;52.2;98860;;;;
2023/05/29 19:19:36;;;;;;;24.8;16.1;;;;;;;15.6;53.3;98870;;;;
2023/05/29 19:29:39;;;;;;;13.8;9.1;;;;;;;15.1;54.3;98880;;;;
2023/05/29 19:40:37;;;;;;;13.8;9.1;;;;;;;14.5;56.5;98880;;;;
2023/05/29 19:50:36;;;;;;;13.8;9.1;;;;;;;14.1;59.8;98880;;;;
2023/05/29 20:00:36;;;;;;;48.6;37;;;;;;;13.9;60.9;98900;;;;
2023/05/29 20:10:36;;;;;;;48.6;37;;;;;;;13.6;61;98900;;;;
2023/05/29 20:21:36;;;;;;;48.6;37;;;;;;;13.2;60.9;98900;;;;
2023/05/29 20:31:36;;;;;;;83;55.7;;;;;;;12.8;62;98910;;;;
2023/05/29 20:42:37;;;;;;;83;55.7;;;;;;;12.6;68.4;98910;;;;
2023/05/29 20:52:36;;;;;;;83;55.7;;;;;;;12.4;67.1;98900;;;;
2023/05/29 21:03:36;;;;;;;33.3;15.8;;;;;;;12.1;67.1;98910;;;;
2023/05/29 21:13:38;;;;;;;33.3;15.8;;;;;;;11.7;68.5;98900;;;;
2023/05/29 21:24:37;;;;;;;33.3;15.8;;;;;;;11.5;72.3;98900;;;;
2023/05/29 21:31:12;;;;;;;18.4;8.4;;;;;;;11.5;72.7;98890;;;;
2023/05/29 21:41:10;;;;;;;18.4;8.4;;;;;;;11.5;72.8;98890;;;;
2023/05/29 21:51:10;;;;;;;18.4;8.4;;;;;;;11.4;73.1;98880;;;;
2023/05/29 22:01:10;;;;;;;14;7.2;;;;;;;11.3;73;98890;;;;
2023/05/29 22:12:10;;;;;;;14;7.2;;;;;;;11.1;72.5;98880;;;;
2023/05/29 22:22:10;;;;;;;14;7.2;;;;;;;10.9;73;98890;;;;
2023/05/29 22:33:10;;;;;;;11.9;6.4;;;;;;;10.8;73.9;98880;;;;
2023/05/29 22:43:10;;;;;;;11.9;6.4;;;;;;;10.6;74.2;98880;;;;
2023/05/29 22:53:10;;;;;;;11.9;6.4;;;;;;;10.4;74.1;98880;;;;
2023/05/29 23:03:10;;;;;;;14.7;7;;;;;;;10.2;74.7;98880;;;;
2023/05/29 23:13:10;;;;;;;14.7;7;;;;;;;10;79.3;98880;;;;
2023/05/29 23:24:11;;;;;;;14.7;7;;;;;;;9.8;76.9;98880;;;;
2023/05/29 23:35:10;;;;;;;14;6.9;;;;;;;9.7;79.9;98880;;;;
2023/05/29 23:45:11;;;;;;;14;6.9;;;;;;;9.6;79;98870;;;;
2023/05/29 23:55:10;;;;;;;14;6.9;;;;;;;9.6;78.3;98880;;;;
